sensor_id;sensor_type;location;lat;lon;timestamp;temperature;humidity
16327;DHT22;34812;49.846;9.610;2023-05-27T00:00:44;10.40;99.90
16327;DHT22;34812;49.846;9.610;2023-05-27T00:01:46;10.30;99.90
16327;DHT22;34812;49.846;9.610;2023-05-27T00:02:47;10.30;99.90
16327;DHT22;34812;49.846;9.610;2023-05-27T00:03:48;10.30;99.90
16327;DHT22;34812;49.846;9.610;2023-05-27T00:04:49;10.20;99.90
16327;DHT22;34812;49.846;9.610;2023-05-27T00:05:51;10.20;99.90
16327;DHT22;34812;49.846;9.610;2023-05-27T00:06:52;10.20;99.90
16327;DHT22;34812;49.846;9.610;2023-05-27T00:07:55;10.20;99.90
16327;DHT22;34812;49.846;9.610;2023-05-27T00:08:55;10.10;99.90
16327;DHT22;34812;49.846;9.610;2023-05-27T00:09:57;10.10;99.90
16327;DHT22;34812;49.846;9.610;2023-05-27T00:10:58;10.10;99.90
16327;DHT22;34812;49.846;9.610;2023-05-27T00:12:00;10.10;99.90
16327;DHT22;34812;49.846;9.610;2023-05-27T00:13:01;10.10;99.90
16327;DHT22;34812;49.846;9.610;2023-05-27T00:14:04;10.00;99.90
16327;DHT22;34812;49.846;9.610;2023-05-27T00:15:06;10.00;99.90
16327;DHT22;34812;49.846;9.610;2023-05-27T00:16:08;10.00;99.90
16327;DHT22;34812;49.846;9.610;2023-05-27T00:17:09;10.00;99.90
16327;DHT22;34812;49.846;9.610;2023-05-27T00:18:14;9.90;99.90
16327;DHT22;34812;49.846;9.610;2023-05-27T00:19:15;9.90;99.90
16327;DHT22;34812;49.846;9.610;2023-05-27T00:20:19;9.90;99.90
16327;DHT22;34812;49.846;9.610;2023-05-27T00:21:20;9.80;99.90
16327;DHT22;34812;49.846;9.610;2023-05-27T00:22:22;9.80;99.90
16327;DHT22;34812;49.846;9.610;2023-05-27T00:23:23;9.80;99.90
16327;DHT22;34812;49.846;9.610;2023-05-27T00:24:25;9.70;99.90
16327;DHT22;34812;49.846;9.610;2023-05-27T00:25:26;9.70;99.90
16327;DHT22;34812;49.846;9.610;2023-05-27T00:26:28;9.70;99.90
16327;DHT22;34812;49.846;9.610;2023-05-27T00:27:29;9.70;99.90
16327;DHT22;34812;49.846;9.610;2023-05-27T00:28:31;9.60;99.90
16327;DHT22;34812;49.846;9.610;2023-05-27T00:29:33;9.60;99.90
16327;DHT22;34812;49.846;9.610;2023-05-27T00:30:36;9.60;99.90
16327;DHT22;34812;49.846;9.610;2023-05-27T00:31:37;9.60;99.90
16327;DHT22;34812;49.846;9.610;2023-05-27T00:32:39;9.50;99.90
16327;DHT22;34812;49.846;9.610;2023-05-27T00:33:40;9.50;99.90
16327;DHT22;34812;49.846;9.610;2023-05-27T00:34:44;9.50;99.90
16327;DHT22;34812;49.846;9.610;2023-05-27T00:35:45;9.40;99.90
16327;DHT22;34812;49.846;9.610;2023-05-27T00:36:47;9.40;99.90
16327;DHT22;34812;49.846;9.610;2023-05-27T00:37:48;9.50;99.90
16327;DHT22;34812;49.846;9.610;2023-05-27T00:38:50;9.50;99.90
16327;DHT22;34812;49.846;9.610;2023-05-27T00:39:51;9.50;99.90
16327;DHT22;34812;49.846;9.610;2023-05-27T00:40:53;9.50;99.90
16327;DHT22;34812;49.846;9.610;2023-05-27T00:41:54;9.40;99.90
16327;DHT22;34812;49.846;9.610;2023-05-27T00:42:58;9.40;99.90
16327;DHT22;34812;49.846;9.610;2023-05-27T00:43:58;9.40;99.90
16327;DHT22;34812;49.846;9.610;2023-05-27T00:45:02;9.40;99.90
16327;DHT22;34812;49.846;9.610;2023-05-27T00:46:03;9.30;99.90
16327;DHT22;34812;49.846;9.610;2023-05-27T00:47:05;9.30;99.90
16327;DHT22;34812;49.846;9.610;2023-05-27T00:48:06;9.30;99.90
16327;DHT22;34812;49.846;9.610;2023-05-27T00:49:08;9.20;99.90
16327;DHT22;34812;49.846;9.610;2023-05-27T00:50:09;9.20;99.90
16327;DHT22;34812;49.846;9.610;2023-05-27T00:51:11;9.20;99.90
16327;DHT22;34812;49.846;9.610;2023-05-27T00:52:12;9.30;99.90
16327;DHT22;34812;49.846;9.610;2023-05-27T00:53:15;9.30;99.90
16327;DHT22;34812;49.846;9.610;2023-05-27T00:54:17;9.30;99.90
16327;DHT22;34812;49.846;9.610;2023-05-27T00:55:19;9.30;99.90
16327;DHT22;34812;49.846;9.610;2023-05-27T00:56:20;9.30;99.90
16327;DHT22;34812;49.846;9.610;2023-05-27T00:57:23;9.30;99.90
16327;DHT22;34812;49.846;9.610;2023-05-27T00:58:24;9.30;99.90
16327;DHT22;34812;49.846;9.610;2023-05-27T00:59:28;9.30;99.90
16327;DHT22;34812;49.846;9.610;2023-05-27T01:00:30;9.20;99.90
16327;DHT22;34812;49.846;9.610;2023-05-27T01:01:33;9.20;99.90
16327;DHT22;34812;49.846;9.610;2023-05-27T01:02:37;9.20;99.90
16327;DHT22;34812;49.846;9.610;2023-05-27T01:03:41;9.10;99.90
16327;DHT22;34812;49.846;9.610;2023-05-27T01:04:43;9.10;99.90
16327;DHT22;34812;49.846;9.610;2023-05-27T01:05:46;9.10;99.90
16327;DHT22;34812;49.846;9.610;2023-05-27T01:06:54;9.10;99.90
16327;DHT22;34812;49.846;9.610;2023-05-27T01:08:06;9.10;99.90
16327;DHT22;34812;49.846;9.610;2023-05-27T01:09:19;9.00;99.90
16327;DHT22;34812;49.846;9.610;2023-05-27T01:10:26;9.00;99.90
16327;DHT22;34812;49.846;9.610;2023-05-27T01:11:34;9.00;99.90
16327;DHT22;34812;49.846;9.610;2023-05-27T01:12:44;8.90;99.90
16327;DHT22;34812;49.846;9.610;2023-05-27T01:13:52;8.90;99.90
16327;DHT22;34812;49.846;9.610;2023-05-27T01:14:57;8.80;99.90
16327;DHT22;34812;49.846;9.610;2023-05-27T01:16:02;8.80;99.90
16327;DHT22;34812;49.846;9.610;2023-05-27T01:17:05;8.70;99.90
16327;DHT22;34812;49.846;9.610;2023-05-27T01:18:09;8.70;99.90
16327;DHT22;34812;49.846;9.610;2023-05-27T01:19:13;8.70;99.90
16327;DHT22;34812;49.846;9.610;2023-05-27T01:20:17;8.70;99.90
16327;DHT22;34812;49.846;9.610;2023-05-27T01:21:18;8.60;99.90
16327;DHT22;34812;49.846;9.610;2023-05-27T01:22:27;8.60;99.90
16327;DHT22;34812;49.846;9.610;2023-05-27T01:23:28;8.60;99.90
16327;DHT22;34812;49.846;9.610;2023-05-27T01:24:31;8.60;99.90
16327;DHT22;34812;49.846;9.610;2023-05-27T01:25:33;8.50;99.90
16327;DHT22;34812;49.846;9.610;2023-05-27T01:26:35;8.50;99.90
16327;DHT22;34812;49.846;9.610;2023-05-27T01:27:36;8.60;99.90
16327;DHT22;34812;49.846;9.610;2023-05-27T01:28:40;8.60;99.90
16327;DHT22;34812;49.846;9.610;2023-05-27T01:29:42;8.60;99.90
16327;DHT22;34812;49.846;9.610;2023-05-27T01:30:45;8.60;99.90
16327;DHT22;34812;49.846;9.610;2023-05-27T01:31:51;8.60;99.90
16327;DHT22;34812;49.846;9.610;2023-05-27T01:32:59;8.60;99.90
16327;DHT22;34812;49.846;9.610;2023-05-27T01:34:08;8.50;99.90
16327;DHT22;34812;49.846;9.610;2023-05-27T01:35:16;8.50;99.90
16327;DHT22;34812;49.846;9.610;2023-05-27T01:36:20;8.50;99.90
16327;DHT22;34812;49.846;9.610;2023-05-27T01:37:27;8.50;99.90
16327;DHT22;34812;49.846;9.610;2023-05-27T01:38:32;8.50;99.90
16327;DHT22;34812;49.846;9.610;2023-05-27T01:39:34;8.40;99.90
16327;DHT22;34812;49.846;9.610;2023-05-27T01:40:37;8.40;99.90
16327;DHT22;34812;49.846;9.610;2023-05-27T01:41:40;8.40;99.90
16327;DHT22;34812;49.846;9.610;2023-05-27T01:42:45;8.40;99.90
16327;DHT22;34812;49.846;9.610;2023-05-27T01:43:47;8.40;99.90
16327;DHT22;34812;49.846;9.610;2023-05-27T01:44:49;8.40;99.90
16327;DHT22;34812;49.846;9.610;2023-05-27T01:45:51;8.40;99.90
16327;DHT22;34812;49.846;9.610;2023-05-27T01:46:58;8.40;99.90
16327;DHT22;34812;49.846;9.610;2023-05-27T01:47:59;8.40;99.90
16327;DHT22;34812;49.846;9.610;2023-05-27T01:49:01;8.30;99.90
16327;DHT22;34812;49.846;9.610;2023-05-27T01:50:02;8.30;99.90
16327;DHT22;34812;49.846;9.610;2023-05-27T01:51:04;8.30;99.90
16327;DHT22;34812;49.846;9.610;2023-05-27T01:52:06;8.20;99.90
16327;DHT22;34812;49.846;9.610;2023-05-27T01:53:10;8.20;99.90
16327;DHT22;34812;49.846;9.610;2023-05-27T01:54:12;8.20;99.90
16327;DHT22;34812;49.846;9.610;2023-05-27T01:55:14;8.20;99.90
16327;DHT22;34812;49.846;9.610;2023-05-27T01:56:15;8.10;99.90
16327;DHT22;34812;49.846;9.610;2023-05-27T01:57:16;8.20;99.90
16327;DHT22;34812;49.846;9.610;2023-05-27T01:58:17;8.10;99.90
16327;DHT22;34812;49.846;9.610;2023-05-27T01:59:19;8.10;99.90
16327;DHT22;34812;49.846;9.610;2023-05-27T02:00:21;8.10;99.90
16327;DHT22;34812;49.846;9.610;2023-05-27T02:01:22;8.10;99.90
16327;DHT22;34812;49.846;9.610;2023-05-27T02:02:25;8.10;99.90
16327;DHT22;34812;49.846;9.610;2023-05-27T02:03:27;8.10;99.90
16327;DHT22;34812;49.846;9.610;2023-05-27T02:04:28;8.10;99.90
16327;DHT22;34812;49.846;9.610;2023-05-27T02:05:30;8.10;99.90
16327;DHT22;34812;49.846;9.610;2023-05-27T02:06:31;8.20;99.90
16327;DHT22;34812;49.846;9.610;2023-05-27T02:07:33;8.20;99.90
16327;DHT22;34812;49.846;9.610;2023-05-27T02:08:37;8.20;99.90
16327;DHT22;34812;49.846;9.610;2023-05-27T02:09:39;8.20;99.90
16327;DHT22;34812;49.846;9.610;2023-05-27T02:10:40;8.20;99.90
16327;DHT22;34812;49.846;9.610;2023-05-27T02:11:43;8.20;99.90
16327;DHT22;34812;49.846;9.610;2023-05-27T02:12:44;8.20;99.90
16327;DHT22;34812;49.846;9.610;2023-05-27T02:13:46;8.20;99.90
16327;DHT22;34812;49.846;9.610;2023-05-27T02:14:47;8.20;99.90
16327;DHT22;34812;49.846;9.610;2023-05-27T02:15:49;8.20;99.90
16327;DHT22;34812;49.846;9.610;2023-05-27T02:16:50;8.20;99.90
16327;DHT22;34812;49.846;9.610;2023-05-27T02:17:52;8.20;99.90
16327;DHT22;34812;49.846;9.610;2023-05-27T02:18:56;8.20;99.90
16327;DHT22;34812;49.846;9.610;2023-05-27T02:19:58;8.20;99.90
16327;DHT22;34812;49.846;9.610;2023-05-27T02:20:58;8.20;99.90
16327;DHT22;34812;49.846;9.610;2023-05-27T02:22:06;8.20;99.90
16327;DHT22;34812;49.846;9.610;2023-05-27T02:23:07;8.20;99.90
16327;DHT22;34812;49.846;9.610;2023-05-27T02:24:10;8.20;99.90
16327;DHT22;34812;49.846;9.610;2023-05-27T02:25:11;8.20;99.90
16327;DHT22;34812;49.846;9.610;2023-05-27T02:26:13;8.20;99.90
16327;DHT22;34812;49.846;9.610;2023-05-27T02:27:14;8.20;99.90
16327;DHT22;34812;49.846;9.610;2023-05-27T02:28:16;8.20;99.90
16327;DHT22;34812;49.846;9.610;2023-05-27T02:29:18;8.10;99.90
16327;DHT22;34812;49.846;9.610;2023-05-27T02:30:20;8.10;99.90
16327;DHT22;34812;49.846;9.610;2023-05-27T02:31:21;8.10;99.90
16327;DHT22;34812;49.846;9.610;2023-05-27T02:32:23;8.10;99.90
16327;DHT22;34812;49.846;9.610;2023-05-27T02:33:24;8.10;99.90
16327;DHT22;34812;49.846;9.610;2023-05-27T02:34:25;8.10;99.90
16327;DHT22;34812;49.846;9.610;2023-05-27T02:35:27;8.10;99.90
16327;DHT22;34812;49.846;9.610;2023-05-27T02:36:28;8.10;99.90
16327;DHT22;34812;49.846;9.610;2023-05-27T02:37:29;8.10;99.90
16327;DHT22;34812;49.846;9.610;2023-05-27T02:38:33;8.10;99.90
16327;DHT22;34812;49.846;9.610;2023-05-27T02:39:35;8.10;99.90
16327;DHT22;34812;49.846;9.610;2023-05-27T02:40:37;8.10;99.90
16327;DHT22;34812;49.846;9.610;2023-05-27T02:41:38;8.10;99.90
16327;DHT22;34812;49.846;9.610;2023-05-27T02:42:39;8.10;99.90
16327;DHT22;34812;49.846;9.610;2023-05-27T02:43:40;8.10;99.90
16327;DHT22;34812;49.846;9.610;2023-05-27T02:44:43;8.10;99.90
16327;DHT22;34812;49.846;9.610;2023-05-27T02:45:44;8.10;99.90
16327;DHT22;34812;49.846;9.610;2023-05-27T02:46:45;8.10;99.90
16327;DHT22;34812;49.846;9.610;2023-05-27T02:47:46;8.10;99.90
16327;DHT22;34812;49.846;9.610;2023-05-27T02:48:48;8.00;99.90
16327;DHT22;34812;49.846;9.610;2023-05-27T02:49:49;8.00;99.90
16327;DHT22;34812;49.846;9.610;2023-05-27T02:50:51;8.00;99.90
16327;DHT22;34812;49.846;9.610;2023-05-27T02:51:52;8.00;99.90
16327;DHT22;34812;49.846;9.610;2023-05-27T02:52:54;8.00;99.90
16327;DHT22;34812;49.846;9.610;2023-05-27T02:53:55;8.00;99.90
16327;DHT22;34812;49.846;9.610;2023-05-27T02:54:58;8.00;99.90
16327;DHT22;34812;49.846;9.610;2023-05-27T02:56:00;8.00;99.90
16327;DHT22;34812;49.846;9.610;2023-05-27T02:57:01;7.90;99.90
16327;DHT22;34812;49.846;9.610;2023-05-27T02:58:02;8.00;99.90
16327;DHT22;34812;49.846;9.610;2023-05-27T02:59:05;7.90;99.90
16327;DHT22;34812;49.846;9.610;2023-05-27T03:00:07;7.90;99.90
16327;DHT22;34812;49.846;9.610;2023-05-27T03:01:10;7.90;99.90
16327;DHT22;34812;49.846;9.610;2023-05-27T03:02:11;7.80;99.90
16327;DHT22;34812;49.846;9.610;2023-05-27T03:03:13;7.80;99.90
16327;DHT22;34812;49.846;9.610;2023-05-27T03:04:14;7.80;99.90
16327;DHT22;34812;49.846;9.610;2023-05-27T03:05:17;7.80;99.90
16327;DHT22;34812;49.846;9.610;2023-05-27T03:06:17;7.70;99.90
16327;DHT22;34812;49.846;9.610;2023-05-27T03:07:20;7.70;99.90
16327;DHT22;34812;49.846;9.610;2023-05-27T03:08:21;7.70;99.90
16327;DHT22;34812;49.846;9.610;2023-05-27T03:09:23;7.70;99.90
16327;DHT22;34812;49.846;9.610;2023-05-27T03:10:25;7.80;99.90
16327;DHT22;34812;49.846;9.610;2023-05-27T03:11:27;7.80;99.90
16327;DHT22;34812;49.846;9.610;2023-05-27T03:12:28;7.80;99.90
16327;DHT22;34812;49.846;9.610;2023-05-27T03:13:30;7.80;99.90
16327;DHT22;34812;49.846;9.610;2023-05-27T03:14:31;7.80;99.90
16327;DHT22;34812;49.846;9.610;2023-05-27T03:15:32;7.80;99.90
16327;DHT22;34812;49.846;9.610;2023-05-27T03:16:35;7.80;99.90
16327;DHT22;34812;49.846;9.610;2023-05-27T03:17:37;7.80;99.90
16327;DHT22;34812;49.846;9.610;2023-05-27T03:18:40;7.70;99.90
16327;DHT22;34812;49.846;9.610;2023-05-27T03:19:40;7.70;99.90
16327;DHT22;34812;49.846;9.610;2023-05-27T03:20:43;7.70;99.90
16327;DHT22;34812;49.846;9.610;2023-05-27T03:21:44;7.70;99.90
16327;DHT22;34812;49.846;9.610;2023-05-27T03:22:48;7.70;99.90
16327;DHT22;34812;49.846;9.610;2023-05-27T03:23:49;7.60;99.90
16327;DHT22;34812;49.846;9.610;2023-05-27T03:24:52;7.60;99.90
16327;DHT22;34812;49.846;9.610;2023-05-27T03:25:56;7.60;99.90
16327;DHT22;34812;49.846;9.610;2023-05-27T03:26:59;7.60;99.90
16327;DHT22;34812;49.846;9.610;2023-05-27T03:28:05;7.60;99.90
16327;DHT22;34812;49.846;9.610;2023-05-27T03:29:07;7.60;99.90
16327;DHT22;34812;49.846;9.610;2023-05-27T03:30:08;7.60;99.90
16327;DHT22;34812;49.846;9.610;2023-05-27T03:31:17;7.60;99.90
16327;DHT22;34812;49.846;9.610;2023-05-27T03:32:28;7.60;99.90
16327;DHT22;34812;49.846;9.610;2023-05-27T03:33:30;7.60;99.90
16327;DHT22;34812;49.846;9.610;2023-05-27T03:34:30;7.60;99.90
16327;DHT22;34812;49.846;9.610;2023-05-27T03:35:32;7.60;99.90
16327;DHT22;34812;49.846;9.610;2023-05-27T03:36:33;7.60;99.90
16327;DHT22;34812;49.846;9.610;2023-05-27T03:37:37;7.60;99.90
16327;DHT22;34812;49.846;9.610;2023-05-27T03:38:41;7.60;99.90
16327;DHT22;34812;49.846;9.610;2023-05-27T03:39:43;7.60;99.90
16327;DHT22;34812;49.846;9.610;2023-05-27T03:40:44;7.60;99.90
16327;DHT22;34812;49.846;9.610;2023-05-27T03:41:48;7.60;99.90
16327;DHT22;34812;49.846;9.610;2023-05-27T03:42:49;7.60;99.90
16327;DHT22;34812;49.846;9.610;2023-05-27T03:43:54;7.60;99.90
16327;DHT22;34812;49.846;9.610;2023-05-27T03:44:56;7.60;99.90
16327;DHT22;34812;49.846;9.610;2023-05-27T03:46:01;7.60;99.90
16327;DHT22;34812;49.846;9.610;2023-05-27T03:47:03;7.60;99.90
16327;DHT22;34812;49.846;9.610;2023-05-27T03:48:07;7.60;99.90
16327;DHT22;34812;49.846;9.610;2023-05-27T03:49:08;7.60;99.90
16327;DHT22;34812;49.846;9.610;2023-05-27T03:50:10;7.60;99.90
16327;DHT22;34812;49.846;9.610;2023-05-27T03:51:11;7.60;99.90
16327;DHT22;34812;49.846;9.610;2023-05-27T03:52:12;7.60;99.90
16327;DHT22;34812;49.846;9.610;2023-05-27T03:53:13;7.60;99.90
16327;DHT22;34812;49.846;9.610;2023-05-27T03:54:17;7.60;99.90
16327;DHT22;34812;49.846;9.610;2023-05-27T03:55:20;7.70;99.90
16327;DHT22;34812;49.846;9.610;2023-05-27T03:56:22;7.70;99.90
16327;DHT22;34812;49.846;9.610;2023-05-27T03:57:24;7.70;99.90
16327;DHT22;34812;49.846;9.610;2023-05-27T03:58:26;7.70;99.90
16327;DHT22;34812;49.846;9.610;2023-05-27T03:59:27;7.70;99.90
16327;DHT22;34812;49.846;9.610;2023-05-27T04:00:29;7.70;99.90
16327;DHT22;34812;49.846;9.610;2023-05-27T04:01:31;7.70;99.90
16327;DHT22;34812;49.846;9.610;2023-05-27T04:02:32;7.80;99.90
16327;DHT22;34812;49.846;9.610;2023-05-27T04:03:34;7.80;99.90
16327;DHT22;34812;49.846;9.610;2023-05-27T04:04:35;7.80;99.90
16327;DHT22;34812;49.846;9.610;2023-05-27T04:05:36;7.80;99.90
16327;DHT22;34812;49.846;9.610;2023-05-27T04:06:39;7.80;99.90
16327;DHT22;34812;49.846;9.610;2023-05-27T04:07:42;7.90;99.90
16327;DHT22;34812;49.846;9.610;2023-05-27T04:08:44;7.80;99.90
16327;DHT22;34812;49.846;9.610;2023-05-27T04:09:45;7.90;99.90
16327;DHT22;34812;49.846;9.610;2023-05-27T04:10:46;7.90;99.90
16327;DHT22;34812;49.846;9.610;2023-05-27T04:11:47;7.90;99.90
16327;DHT22;34812;49.846;9.610;2023-05-27T04:12:50;7.90;99.90
16327;DHT22;34812;49.846;9.610;2023-05-27T04:13:52;7.90;99.90
16327;DHT22;34812;49.846;9.610;2023-05-27T04:14:53;7.90;99.90
16327;DHT22;34812;49.846;9.610;2023-05-27T04:15:56;8.00;99.90
16327;DHT22;34812;49.846;9.610;2023-05-27T04:16:58;8.00;99.90
16327;DHT22;34812;49.846;9.610;2023-05-27T04:17:59;8.00;99.90
16327;DHT22;34812;49.846;9.610;2023-05-27T04:19:02;8.00;99.90
16327;DHT22;34812;49.846;9.610;2023-05-27T04:20:05;8.10;99.90
16327;DHT22;34812;49.846;9.610;2023-05-27T04:21:13;8.10;99.90
16327;DHT22;34812;49.846;9.610;2023-05-27T04:22:16;8.10;99.90
16327;DHT22;34812;49.846;9.610;2023-05-27T04:23:17;8.10;99.90
16327;DHT22;34812;49.846;9.610;2023-05-27T04:24:19;8.10;99.90
16327;DHT22;34812;49.846;9.610;2023-05-27T04:25:21;8.10;99.90
16327;DHT22;34812;49.846;9.610;2023-05-27T04:26:39;8.20;99.90
16327;DHT22;34812;49.846;9.610;2023-05-27T04:27:42;8.20;99.90
16327;DHT22;34812;49.846;9.610;2023-05-27T04:28:44;8.30;99.90
16327;DHT22;34812;49.846;9.610;2023-05-27T04:29:46;8.30;99.90
16327;DHT22;34812;49.846;9.610;2023-05-27T04:30:50;8.40;99.90
16327;DHT22;34812;49.846;9.610;2023-05-27T04:32:04;8.40;99.90
16327;DHT22;34812;49.846;9.610;2023-05-27T04:33:07;8.50;99.90
16327;DHT22;34812;49.846;9.610;2023-05-27T04:34:09;8.50;99.90
16327;DHT22;34812;49.846;9.610;2023-05-27T04:35:12;8.60;99.90
16327;DHT22;34812;49.846;9.610;2023-05-27T04:36:13;8.60;99.90
16327;DHT22;34812;49.846;9.610;2023-05-27T04:37:32;8.60;99.90
16327;DHT22;34812;49.846;9.610;2023-05-27T04:38:34;8.70;99.90
16327;DHT22;34812;49.846;9.610;2023-05-27T04:39:38;8.70;99.90
16327;DHT22;34812;49.846;9.610;2023-05-27T04:40:46;8.70;99.90
16327;DHT22;34812;49.846;9.610;2023-05-27T04:41:59;8.70;99.90
16327;DHT22;34812;49.846;9.610;2023-05-27T04:43:04;8.80;99.90
16327;DHT22;34812;49.846;9.610;2023-05-27T04:44:07;8.80;99.90
16327;DHT22;34812;49.846;9.610;2023-05-27T04:45:14;8.90;99.90
16327;DHT22;34812;49.846;9.610;2023-05-27T04:46:14;8.90;99.90
16327;DHT22;34812;49.846;9.610;2023-05-27T04:47:17;9.00;99.90
16327;DHT22;34812;49.846;9.610;2023-05-27T04:48:17;9.00;99.90
16327;DHT22;34812;49.846;9.610;2023-05-27T04:49:20;9.10;99.90
16327;DHT22;34812;49.846;9.610;2023-05-27T04:50:22;9.10;99.90
16327;DHT22;34812;49.846;9.610;2023-05-27T04:51:25;9.20;99.90
16327;DHT22;34812;49.846;9.610;2023-05-27T04:52:26;9.30;99.90
16327;DHT22;34812;49.846;9.610;2023-05-27T04:53:28;9.30;99.90
16327;DHT22;34812;49.846;9.610;2023-05-27T04:54:29;9.40;99.90
16327;DHT22;34812;49.846;9.610;2023-05-27T04:55:34;9.50;99.90
16327;DHT22;34812;49.846;9.610;2023-05-27T04:56:36;9.50;99.90
16327;DHT22;34812;49.846;9.610;2023-05-27T04:57:38;9.60;99.90
16327;DHT22;34812;49.846;9.610;2023-05-27T04:58:41;9.60;99.90
16327;DHT22;34812;49.846;9.610;2023-05-27T04:59:48;9.70;99.90
16327;DHT22;34812;49.846;9.610;2023-05-27T05:01:00;9.70;99.90
16327;DHT22;34812;49.846;9.610;2023-05-27T05:02:01;9.80;99.90
16327;DHT22;34812;49.846;9.610;2023-05-27T05:03:19;9.90;99.90
16327;DHT22;34812;49.846;9.610;2023-05-27T05:04:37;10.00;99.90
16327;DHT22;34812;49.846;9.610;2023-05-27T05:05:39;10.00;99.90
16327;DHT22;34812;49.846;9.610;2023-05-27T05:06:41;10.10;99.90
16327;DHT22;34812;49.846;9.610;2023-05-27T05:07:43;10.10;99.90
16327;DHT22;34812;49.846;9.610;2023-05-27T05:08:47;10.20;99.90
16327;DHT22;34812;49.846;9.610;2023-05-27T05:09:48;10.20;99.90
16327;DHT22;34812;49.846;9.610;2023-05-27T05:10:57;10.20;99.90
16327;DHT22;34812;49.846;9.610;2023-05-27T05:11:59;10.30;99.90
16327;DHT22;34812;49.846;9.610;2023-05-27T05:13:03;10.30;99.90
16327;DHT22;34812;49.846;9.610;2023-05-27T05:14:04;10.40;99.90
16327;DHT22;34812;49.846;9.610;2023-05-27T05:15:08;10.40;99.90
16327;DHT22;34812;49.846;9.610;2023-05-27T05:16:09;10.50;99.90
16327;DHT22;34812;49.846;9.610;2023-05-27T05:17:11;10.50;99.90
16327;DHT22;34812;49.846;9.610;2023-05-27T05:18:12;10.60;99.90
16327;DHT22;34812;49.846;9.610;2023-05-27T05:19:14;10.70;99.90
16327;DHT22;34812;49.846;9.610;2023-05-27T05:20:15;10.70;99.90
16327;DHT22;34812;49.846;9.610;2023-05-27T05:21:17;10.80;99.90
16327;DHT22;34812;49.846;9.610;2023-05-27T05:22:19;10.80;99.90
16327;DHT22;34812;49.846;9.610;2023-05-27T05:23:23;10.90;99.90
16327;DHT22;34812;49.846;9.610;2023-05-27T05:24:24;10.90;99.90
16327;DHT22;34812;49.846;9.610;2023-05-27T05:25:26;11.00;99.90
16327;DHT22;34812;49.846;9.610;2023-05-27T05:26:30;11.10;99.90
16327;DHT22;34812;49.846;9.610;2023-05-27T05:27:34;11.20;99.90
16327;DHT22;34812;49.846;9.610;2023-05-27T05:28:37;11.40;99.90
16327;DHT22;34812;49.846;9.610;2023-05-27T05:29:41;11.50;99.90
16327;DHT22;34812;49.846;9.610;2023-05-27T05:30:44;11.50;99.90
16327;DHT22;34812;49.846;9.610;2023-05-27T05:31:48;11.60;99.90
16327;DHT22;34812;49.846;9.610;2023-05-27T05:32:51;11.60;99.90
16327;DHT22;34812;49.846;9.610;2023-05-27T05:33:54;11.70;99.90
16327;DHT22;34812;49.846;9.610;2023-05-27T05:34:55;11.70;99.90
16327;DHT22;34812;49.846;9.610;2023-05-27T05:35:57;11.70;99.90
16327;DHT22;34812;49.846;9.610;2023-05-27T05:37:05;11.70;99.90
16327;DHT22;34812;49.846;9.610;2023-05-27T05:38:07;11.80;99.90
16327;DHT22;34812;49.846;9.610;2023-05-27T05:39:08;11.80;99.90
16327;DHT22;34812;49.846;9.610;2023-05-27T05:40:14;11.90;99.90
16327;DHT22;34812;49.846;9.610;2023-05-27T05:41:25;11.90;99.90
16327;DHT22;34812;49.846;9.610;2023-05-27T05:42:27;11.90;99.90
16327;DHT22;34812;49.846;9.610;2023-05-27T05:43:28;11.90;99.90
16327;DHT22;34812;49.846;9.610;2023-05-27T05:44:31;11.90;99.90
16327;DHT22;34812;49.846;9.610;2023-05-27T05:45:31;12.00;99.90
16327;DHT22;34812;49.846;9.610;2023-05-27T05:46:35;12.00;99.90
16327;DHT22;34812;49.846;9.610;2023-05-27T05:47:35;12.00;99.90
16327;DHT22;34812;49.846;9.610;2023-05-27T05:48:43;12.10;99.90
16327;DHT22;34812;49.846;9.610;2023-05-27T05:49:47;12.10;99.90
16327;DHT22;34812;49.846;9.610;2023-05-27T05:50:49;12.10;99.90
16327;DHT22;34812;49.846;9.610;2023-05-27T05:51:50;12.20;99.90
16327;DHT22;34812;49.846;9.610;2023-05-27T05:52:52;12.20;99.90
16327;DHT22;34812;49.846;9.610;2023-05-27T05:53:53;12.30;99.90
16327;DHT22;34812;49.846;9.610;2023-05-27T05:54:56;12.30;99.90
16327;DHT22;34812;49.846;9.610;2023-05-27T05:55:57;12.30;99.90
16327;DHT22;34812;49.846;9.610;2023-05-27T05:57:00;12.40;99.90
16327;DHT22;34812;49.846;9.610;2023-05-27T05:58:01;12.40;99.90
16327;DHT22;34812;49.846;9.610;2023-05-27T05:59:04;12.50;99.90
16327;DHT22;34812;49.846;9.610;2023-05-27T06:00:08;12.60;99.90
16327;DHT22;34812;49.846;9.610;2023-05-27T06:01:18;12.60;99.90
16327;DHT22;34812;49.846;9.610;2023-05-27T06:02:20;12.70;99.90
16327;DHT22;34812;49.846;9.610;2023-05-27T06:03:22;12.80;99.90
16327;DHT22;34812;49.846;9.610;2023-05-27T06:04:27;12.80;99.90
16327;DHT22;34812;49.846;9.610;2023-05-27T06:05:29;12.80;99.90
16327;DHT22;34812;49.846;9.610;2023-05-27T06:06:30;12.90;99.90
16327;DHT22;34812;49.846;9.610;2023-05-27T06:07:52;12.90;99.90
16327;DHT22;34812;49.846;9.610;2023-05-27T06:08:55;13.00;99.90
16327;DHT22;34812;49.846;9.610;2023-05-27T06:09:55;13.00;99.90
16327;DHT22;34812;49.846;9.610;2023-05-27T06:11:07;13.10;99.90
16327;DHT22;34812;49.846;9.610;2023-05-27T06:12:09;13.10;99.90
16327;DHT22;34812;49.846;9.610;2023-05-27T06:13:17;13.20;99.90
16327;DHT22;34812;49.846;9.610;2023-05-27T06:14:18;13.30;99.90
16327;DHT22;34812;49.846;9.610;2023-05-27T06:15:22;13.30;99.90
16327;DHT22;34812;49.846;9.610;2023-05-27T06:16:23;13.40;99.90
16327;DHT22;34812;49.846;9.610;2023-05-27T06:17:26;13.40;99.90
16327;DHT22;34812;49.846;9.610;2023-05-27T06:18:27;13.40;99.90
16327;DHT22;34812;49.846;9.610;2023-05-27T06:19:29;13.40;99.90
16327;DHT22;34812;49.846;9.610;2023-05-27T06:20:30;13.50;99.90
16327;DHT22;34812;49.846;9.610;2023-05-27T06:21:32;13.50;99.90
16327;DHT22;34812;49.846;9.610;2023-05-27T06:22:53;13.50;99.90
16327;DHT22;34812;49.846;9.610;2023-05-27T06:24:13;13.60;99.90
16327;DHT22;34812;49.846;9.610;2023-05-27T06:25:18;13.60;99.90
16327;DHT22;34812;49.846;9.610;2023-05-27T06:26:33;13.70;99.90
16327;DHT22;34812;49.846;9.610;2023-05-27T06:27:34;13.80;99.90
16327;DHT22;34812;49.846;9.610;2023-05-27T06:28:36;13.80;99.90
16327;DHT22;34812;49.846;9.610;2023-05-27T06:29:37;13.80;99.90
16327;DHT22;34812;49.846;9.610;2023-05-27T06:30:39;13.80;99.90
16327;DHT22;34812;49.846;9.610;2023-05-27T06:31:44;13.90;99.90
16327;DHT22;34812;49.846;9.610;2023-05-27T06:32:48;13.90;99.90
16327;DHT22;34812;49.846;9.610;2023-05-27T06:33:51;13.90;99.90
16327;DHT22;34812;49.846;9.610;2023-05-27T06:34:52;14.00;99.90
16327;DHT22;34812;49.846;9.610;2023-05-27T06:35:54;14.00;99.90
16327;DHT22;34812;49.846;9.610;2023-05-27T06:36:55;14.10;99.90
16327;DHT22;34812;49.846;9.610;2023-05-27T06:37:58;14.10;99.90
16327;DHT22;34812;49.846;9.610;2023-05-27T06:38:59;14.20;99.90
16327;DHT22;34812;49.846;9.610;2023-05-27T06:40:02;14.20;99.90
16327;DHT22;34812;49.846;9.610;2023-05-27T06:41:03;14.20;99.90
16327;DHT22;34812;49.846;9.610;2023-05-27T06:42:06;14.20;99.90
16327;DHT22;34812;49.846;9.610;2023-05-27T06:43:16;14.20;99.90